sensor_id;sensor_type;location;lat;lon;timestamp;P1;durP1;ratioP1;P2;durP2;ratioP2
2408;SDS011;8463;48.094;7.970;2023-12-28T00:00:41;1.67;;;1.07;;
2408;SDS011;8463;48.094;7.970;2023-12-28T00:03:07;1.60;;;1.17;;
2408;SDS011;8463;48.094;7.970;2023-12-28T00:05:32;1.23;;;1.13;;
2408;SDS011;8463;48.094;7.970;2023-12-28T00:07:58;2.23;;;1.10;;
2408;SDS011;8463;48.094;7.970;2023-12-28T00:10:25;2.57;;;1.27;;
2408;SDS011;8463;48.094;7.970;2023-12-28T00:12:51;1.43;;;1.10;;
2408;SDS011;8463;48.094;7.970;2023-12-28T00:15:17;1.27;;;1.17;;
2408;SDS011;8463;48.094;7.970;2023-12-28T00:17:43;1.20;;;1.10;;
2408;SDS011;8463;48.094;7.970;2023-12-28T00:20:09;1.80;;;1.20;;
2408;SDS011;8463;48.094;7.970;2023-12-28T00:22:35;2.47;;;1.17;;
2408;SDS011;8463;48.094;7.970;2023-12-28T00:25:02;2.63;;;1.60;;
2408;SDS011;8463;48.094;7.970;2023-12-28T00:27:29;1.10;;;1.00;;
2408;SDS011;8463;48.094;7.970;2023-12-28T00:29:54;1.20;;;1.10;;
2408;SDS011;8463;48.094;7.970;2023-12-28T00:32:20;2.10;;;1.30;;
2408;SDS011;8463;48.094;7.970;2023-12-28T00:34:46;1.07;;;0.97;;
2408;SDS011;8463;48.094;7.970;2023-12-28T00:37:11;1.63;;;1.20;;
2408;SDS011;8463;48.094;7.970;2023-12-28T00:39:37;1.43;;;1.33;;
2408;SDS011;8463;48.094;7.970;2023-12-28T00:42:04;1.33;;;1.23;;
2408;SDS011;8463;48.094;7.970;2023-12-28T00:44:30;3.87;;;1.47;;
2408;SDS011;8463;48.094;7.970;2023-12-28T00:46:57;2.17;;;1.13;;
2408;SDS011;8463;48.094;7.970;2023-12-28T00:49:22;1.93;;;1.27;;
2408;SDS011;8463;48.094;7.970;2023-12-28T00:51:48;1.57;;;1.47;;
2408;SDS011;8463;48.094;7.970;2023-12-28T00:54:13;1.77;;;1.43;;
2408;SDS011;8463;48.094;7.970;2023-12-28T00:56:39;1.57;;;1.47;;
2408;SDS011;8463;48.094;7.970;2023-12-28T00:59:05;1.70;;;1.10;;
2408;SDS011;8463;48.094;7.970;2023-12-28T01:01:30;1.50;;;1.10;;
2408;SDS011;8463;48.094;7.970;2023-12-28T01:03:56;1.90;;;1.50;;
2408;SDS011;8463;48.094;7.970;2023-12-28T01:06:22;1.70;;;1.07;;
2408;SDS011;8463;48.094;7.970;2023-12-28T01:08:52;1.20;;;1.10;;
2408;SDS011;8463;48.094;7.970;2023-12-28T01:11:18;2.77;;;1.30;;
2408;SDS011;8463;48.094;7.970;2023-12-28T01:13:44;1.87;;;1.30;;
2408;SDS011;8463;48.094;7.970;2023-12-28T01:16:11;1.50;;;1.30;;
2408;SDS011;8463;48.094;7.970;2023-12-28T01:18:38;1.17;;;1.00;;
2408;SDS011;8463;48.094;7.970;2023-12-28T01:21:03;1.40;;;1.30;;
2408;SDS011;8463;48.094;7.970;2023-12-28T01:23:29;1.40;;;1.30;;
2408;SDS011;8463;48.094;7.970;2023-12-28T01:25:55;2.27;;;1.30;;
2408;SDS011;8463;48.094;7.970;2023-12-28T01:28:21;1.63;;;1.40;;
2408;SDS011;8463;48.094;7.970;2023-12-28T01:30:47;2.20;;;1.47;;
2408;SDS011;8463;48.094;7.970;2023-12-28T01:33:15;2.00;;;1.43;;
2408;SDS011;8463;48.094;7.970;2023-12-28T01:35:41;1.60;;;1.20;;
2408;SDS011;8463;48.094;7.970;2023-12-28T01:38:07;1.53;;;1.17;;
2408;SDS011;8463;48.094;7.970;2023-12-28T01:40:32;2.47;;;1.17;;
2408;SDS011;8463;48.094;7.970;2023-12-28T01:42:58;3.00;;;1.60;;
2408;SDS011;8463;48.094;7.970;2023-12-28T01:45:24;1.30;;;1.00;;
2408;SDS011;8463;48.094;7.970;2023-12-28T01:47:49;1.90;;;1.60;;
2408;SDS011;8463;48.094;7.970;2023-12-28T01:50:17;1.27;;;1.17;;
2408;SDS011;8463;48.094;7.970;2023-12-28T01:52:44;2.30;;;1.10;;
2408;SDS011;8463;48.094;7.970;2023-12-28T01:55:10;1.50;;;1.13;;
2408;SDS011;8463;48.094;7.970;2023-12-28T01:57:39;1.97;;;1.47;;
2408;SDS011;8463;48.094;7.970;2023-12-28T02:00:06;1.70;;;1.20;;
2408;SDS011;8463;48.094;7.970;2023-12-28T02:02:32;3.80;;;1.17;;
2408;SDS011;8463;48.094;7.970;2023-12-28T02:04:59;1.27;;;1.13;;
2408;SDS011;8463;48.094;7.970;2023-12-28T02:07:25;1.90;;;1.27;;
2408;SDS011;8463;48.094;7.970;2023-12-28T02:09:51;3.70;;;1.80;;
2408;SDS011;8463;48.094;7.970;2023-12-28T02:12:16;1.90;;;1.50;;
2408;SDS011;8463;48.094;7.970;2023-12-28T02:14:42;2.13;;;1.07;;
2408;SDS011;8463;48.094;7.970;2023-12-28T02:20:11;1.33;;;1.17;;
2408;SDS011;8463;48.094;7.970;2023-12-28T02:22:37;1.70;;;1.30;;
2408;SDS011;8463;48.094;7.970;2023-12-28T02:27:41;1.40;;;1.20;;
2408;SDS011;8463;48.094;7.970;2023-12-28T02:30:08;1.40;;;1.30;;
2408;SDS011;8463;48.094;7.970;2023-12-28T02:35:32;2.60;;;1.73;;
2408;SDS011;8463;48.094;7.970;2023-12-28T02:38:10;1.40;;;1.30;;
2408;SDS011;8463;48.094;7.970;2023-12-28T02:40:42;1.40;;;1.00;;
2408;SDS011;8463;48.094;7.970;2023-12-28T02:43:09;3.17;;;1.10;;
2408;SDS011;8463;48.094;7.970;2023-12-28T02:45:35;2.73;;;1.70;;
2408;SDS011;8463;48.094;7.970;2023-12-28T02:48:03;1.37;;;1.23;;
2408;SDS011;8463;48.094;7.970;2023-12-28T02:50:29;2.47;;;1.30;;
2408;SDS011;8463;48.094;7.970;2023-12-28T02:52:55;1.40;;;1.30;;
2408;SDS011;8463;48.094;7.970;2023-12-28T02:55:21;1.80;;;1.37;;
2408;SDS011;8463;48.094;7.970;2023-12-28T02:57:48;2.40;;;1.50;;
2408;SDS011;8463;48.094;7.970;2023-12-28T03:00:15;1.63;;;1.07;;
2408;SDS011;8463;48.094;7.970;2023-12-28T03:02:41;1.47;;;1.23;;
2408;SDS011;8463;48.094;7.970;2023-12-28T03:05:07;1.63;;;1.27;;
2408;SDS011;8463;48.094;7.970;2023-12-28T03:07:33;1.40;;;1.10;;
2408;SDS011;8463;48.094;7.970;2023-12-28T03:09:59;1.70;;;1.60;;
2408;SDS011;8463;48.094;7.970;2023-12-28T03:12:25;1.50;;;1.40;;
2408;SDS011;8463;48.094;7.970;2023-12-28T03:14:50;4.17;;;1.43;;
2408;SDS011;8463;48.094;7.970;2023-12-28T03:17:16;1.30;;;1.10;;
2408;SDS011;8463;48.094;7.970;2023-12-28T03:19:42;2.33;;;1.67;;
2408;SDS011;8463;48.094;7.970;2023-12-28T03:22:07;1.17;;;1.03;;
2408;SDS011;8463;48.094;7.970;2023-12-28T03:24:33;2.60;;;1.37;;
2408;SDS011;8463;48.094;7.970;2023-12-28T03:26:58;1.63;;;1.53;;
2408;SDS011;8463;48.094;7.970;2023-12-28T03:29:24;1.90;;;1.30;;
2408;SDS011;8463;48.094;7.970;2023-12-28T03:31:50;1.47;;;1.00;;
2408;SDS011;8463;48.094;7.970;2023-12-28T03:34:16;1.47;;;0.87;;
2408;SDS011;8463;48.094;7.970;2023-12-28T03:36:42;1.30;;;1.20;;
2408;SDS011;8463;48.094;7.970;2023-12-28T03:39:08;1.83;;;1.50;;
2408;SDS011;8463;48.094;7.970;2023-12-28T03:41:33;1.70;;;1.30;;
2408;SDS011;8463;48.094;7.970;2023-12-28T03:44:01;1.47;;;1.37;;
2408;SDS011;8463;48.094;7.970;2023-12-28T03:46:27;3.53;;;1.20;;
2408;SDS011;8463;48.094;7.970;2023-12-28T03:48:53;1.50;;;1.40;;
2408;SDS011;8463;48.094;7.970;2023-12-28T03:51:18;1.23;;;1.13;;
2408;SDS011;8463;48.094;7.970;2023-12-28T03:53:44;2.13;;;1.27;;
2408;SDS011;8463;48.094;7.970;2023-12-28T03:58:49;1.73;;;1.10;;
2408;SDS011;8463;48.094;7.970;2023-12-28T04:01:18;1.30;;;1.00;;
2408;SDS011;8463;48.094;7.970;2023-12-28T04:03:44;1.70;;;1.30;;
2408;SDS011;8463;48.094;7.970;2023-12-28T04:06:10;1.00;;;0.90;;
2408;SDS011;8463;48.094;7.970;2023-12-28T04:08:36;2.37;;;1.70;;
2408;SDS011;8463;48.094;7.970;2023-12-28T04:11:01;1.13;;;1.00;;
2408;SDS011;8463;48.094;7.970;2023-12-28T04:13:27;2.27;;;1.53;;
2408;SDS011;8463;48.094;7.970;2023-12-28T04:15:53;1.43;;;1.20;;
2408;SDS011;8463;48.094;7.970;2023-12-28T04:18:18;2.40;;;1.50;;
2408;SDS011;8463;48.094;7.970;2023-12-28T04:20:44;1.20;;;1.00;;
2408;SDS011;8463;48.094;7.970;2023-12-28T04:23:10;1.53;;;1.30;;
2408;SDS011;8463;48.094;7.970;2023-12-28T04:25:36;2.00;;;1.80;;
2408;SDS011;8463;48.094;7.970;2023-12-28T04:28:01;3.27;;;1.83;;
2408;SDS011;8463;48.094;7.970;2023-12-28T04:30:27;1.53;;;1.37;;
2408;SDS011;8463;48.094;7.970;2023-12-28T04:32:53;1.30;;;1.20;;
2408;SDS011;8463;48.094;7.970;2023-12-28T04:35:19;1.33;;;1.23;;
2408;SDS011;8463;48.094;7.970;2023-12-28T04:37:44;1.47;;;1.37;;
2408;SDS011;8463;48.094;7.970;2023-12-28T04:40:10;1.23;;;1.10;;
2408;SDS011;8463;48.094;7.970;2023-12-28T04:42:36;1.10;;;0.93;;
2408;SDS011;8463;48.094;7.970;2023-12-28T04:45:01;1.97;;;1.10;;
2408;SDS011;8463;48.094;7.970;2023-12-28T04:47:27;1.20;;;1.10;;
2408;SDS011;8463;48.094;7.970;2023-12-28T04:49:55;2.13;;;1.23;;
2408;SDS011;8463;48.094;7.970;2023-12-28T04:52:21;2.27;;;1.20;;
2408;SDS011;8463;48.094;7.970;2023-12-28T04:54:48;3.63;;;1.40;;
2408;SDS011;8463;48.094;7.970;2023-12-28T04:57:14;1.53;;;1.30;;
2408;SDS011;8463;48.094;7.970;2023-12-28T04:59:40;1.87;;;1.30;;
2408;SDS011;8463;48.094;7.970;2023-12-28T05:02:06;2.30;;;1.47;;
2408;SDS011;8463;48.094;7.970;2023-12-28T05:04:32;1.47;;;1.20;;
2408;SDS011;8463;48.094;7.970;2023-12-28T05:06:58;2.10;;;1.00;;
2408;SDS011;8463;48.094;7.970;2023-12-28T05:09:23;2.07;;;1.23;;
2408;SDS011;8463;48.094;7.970;2023-12-28T05:11:49;1.57;;;1.23;;
2408;SDS011;8463;48.094;7.970;2023-12-28T05:14:15;2.23;;;1.00;;
2408;SDS011;8463;48.094;7.970;2023-12-28T05:16:40;2.47;;;1.27;;
2408;SDS011;8463;48.094;7.970;2023-12-28T05:19:06;2.67;;;1.67;;
2408;SDS011;8463;48.094;7.970;2023-12-28T05:21:32;1.90;;;1.07;;
2408;SDS011;8463;48.094;7.970;2023-12-28T05:23:57;1.57;;;0.90;;
2408;SDS011;8463;48.094;7.970;2023-12-28T05:26:23;2.87;;;1.60;;
2408;SDS011;8463;48.094;7.970;2023-12-28T05:28:49;1.87;;;1.10;;
2408;SDS011;8463;48.094;7.970;2023-12-28T05:31:14;2.10;;;1.27;;
2408;SDS011;8463;48.094;7.970;2023-12-28T05:33:40;2.83;;;1.70;;
2408;SDS011;8463;48.094;7.970;2023-12-28T05:36:06;4.00;;;1.27;;
2408;SDS011;8463;48.094;7.970;2023-12-28T05:38:31;1.87;;;1.43;;
2408;SDS011;8463;48.094;7.970;2023-12-28T05:40:58;1.20;;;1.10;;
2408;SDS011;8463;48.094;7.970;2023-12-28T05:43:24;1.80;;;1.20;;
2408;SDS011;8463;48.094;7.970;2023-12-28T05:45:50;1.83;;;1.40;;
2408;SDS011;8463;48.094;7.970;2023-12-28T05:48:15;1.30;;;1.10;;
2408;SDS011;8463;48.094;7.970;2023-12-28T05:50:41;1.77;;;1.13;;
2408;SDS011;8463;48.094;7.970;2023-12-28T05:53:08;1.77;;;1.33;;
2408;SDS011;8463;48.094;7.970;2023-12-28T05:55:42;2.13;;;1.67;;
2408;SDS011;8463;48.094;7.970;2023-12-28T05:58:08;1.07;;;0.80;;
2408;SDS011;8463;48.094;7.970;2023-12-28T06:00:34;2.93;;;1.53;;
2408;SDS011;8463;48.094;7.970;2023-12-28T06:03:01;1.43;;;1.10;;
2408;SDS011;8463;48.094;7.970;2023-12-28T06:05:27;2.10;;;0.80;;
2408;SDS011;8463;48.094;7.970;2023-12-28T06:07:53;1.63;;;1.07;;
2408;SDS011;8463;48.094;7.970;2023-12-28T06:10:24;1.20;;;1.10;;
2408;SDS011;8463;48.094;7.970;2023-12-28T06:12:49;1.90;;;1.10;;
2408;SDS011;8463;48.094;7.970;2023-12-28T06:15:15;1.30;;;0.80;;
2408;SDS011;8463;48.094;7.970;2023-12-28T06:17:41;1.40;;;1.10;;
2408;SDS011;8463;48.094;7.970;2023-12-28T06:20:07;1.37;;;1.20;;
2408;SDS011;8463;48.094;7.970;2023-12-28T06:22:36;1.30;;;1.20;;
2408;SDS011;8463;48.094;7.970;2023-12-28T06:25:02;6.57;;;1.47;;
2408;SDS011;8463;48.094;7.970;2023-12-28T06:27:28;3.70;;;1.20;;
2408;SDS011;8463;48.094;7.970;2023-12-28T06:29:54;1.20;;;1.00;;
2408;SDS011;8463;48.094;7.970;2023-12-28T06:32:20;2.27;;;1.40;;
2408;SDS011;8463;48.094;7.970;2023-12-28T06:34:46;1.83;;;1.00;;
2408;SDS011;8463;48.094;7.970;2023-12-28T06:37:12;1.73;;;1.20;;
2408;SDS011;8463;48.094;7.970;2023-12-28T06:39:38;2.40;;;1.57;;
2408;SDS011;8463;48.094;7.970;2023-12-28T06:42:04;2.13;;;1.73;;
2408;SDS011;8463;48.094;7.970;2023-12-28T06:44:30;1.20;;;1.10;;
2408;SDS011;8463;48.094;7.970;2023-12-28T06:46:55;2.73;;;1.30;;
2408;SDS011;8463;48.094;7.970;2023-12-28T06:49:21;2.47;;;2.27;;
2408;SDS011;8463;48.094;7.970;2023-12-28T06:51:47;3.37;;;1.83;;
2408;SDS011;8463;48.094;7.970;2023-12-28T06:54:15;1.73;;;1.20;;
2408;SDS011;8463;48.094;7.970;2023-12-28T06:56:41;2.03;;;1.50;;
2408;SDS011;8463;48.094;7.970;2023-12-28T06:59:06;1.40;;;1.10;;
2408;SDS011;8463;48.094;7.970;2023-12-28T07:01:32;1.00;;;0.90;;
2408;SDS011;8463;48.094;7.970;2023-12-28T07:03:58;2.20;;;0.90;;
2408;SDS011;8463;48.094;7.970;2023-12-28T07:06:24;1.03;;;0.83;;
2408;SDS011;8463;48.094;7.970;2023-12-28T07:08:50;1.77;;;1.30;;
2408;SDS011;8463;48.094;7.970;2023-12-28T07:11:16;2.87;;;1.57;;
2408;SDS011;8463;48.094;7.970;2023-12-28T07:13:41;1.73;;;1.63;;
2408;SDS011;8463;48.094;7.970;2023-12-28T07:16:07;1.97;;;1.50;;
2408;SDS011;8463;48.094;7.970;2023-12-28T07:18:33;1.00;;;1.00;;
2408;SDS011;8463;48.094;7.970;2023-12-28T07:20:59;1.67;;;0.90;;
2408;SDS011;8463;48.094;7.970;2023-12-28T07:23:25;1.80;;;1.30;;
2408;SDS011;8463;48.094;7.970;2023-12-28T07:25:52;1.03;;;0.90;;
2408;SDS011;8463;48.094;7.970;2023-12-28T07:28:18;2.43;;;1.30;;
2408;SDS011;8463;48.094;7.970;2023-12-28T07:30:43;2.00;;;1.30;;
2408;SDS011;8463;48.094;7.970;2023-12-28T07:33:09;1.50;;;1.20;;
2408;SDS011;8463;48.094;7.970;2023-12-28T07:35:35;1.60;;;1.40;;
2408;SDS011;8463;48.094;7.970;2023-12-28T07:38:03;1.43;;;1.27;;
2408;SDS011;8463;48.094;7.970;2023-12-28T07:40:28;1.77;;;1.30;;
2408;SDS011;8463;48.094;7.970;2023-12-28T07:42:54;1.57;;;1.40;;
2408;SDS011;8463;48.094;7.970;2023-12-28T07:45:20;2.33;;;1.33;;
2408;SDS011;8463;48.094;7.970;2023-12-28T07:47:48;2.20;;;1.40;;
2408;SDS011;8463;48.094;7.970;2023-12-28T07:50:16;1.93;;;1.43;;
2408;SDS011;8463;48.094;7.970;2023-12-28T07:52:41;4.83;;;1.33;;
2408;SDS011;8463;48.094;7.970;2023-12-28T07:55:07;1.83;;;1.47;;
2408;SDS011;8463;48.094;7.970;2023-12-28T07:57:34;1.67;;;1.27;;
2408;SDS011;8463;48.094;7.970;2023-12-28T08:00:00;2.07;;;1.27;;
2408;SDS011;8463;48.094;7.970;2023-12-28T08:02:26;3.13;;;1.77;;
2408;SDS011;8463;48.094;7.970;2023-12-28T08:04:52;2.13;;;1.80;;
2408;SDS011;8463;48.094;7.970;2023-12-28T08:07:18;2.57;;;2.30;;
2408;SDS011;8463;48.094;7.970;2023-12-28T08:09:44;1.40;;;1.30;;
2408;SDS011;8463;48.094;7.970;2023-12-28T08:12:09;2.03;;;1.87;;
2408;SDS011;8463;48.094;7.970;2023-12-28T08:14:35;6.73;;;1.50;;
2408;SDS011;8463;48.094;7.970;2023-12-28T08:17:00;2.27;;;1.50;;
2408;SDS011;8463;48.094;7.970;2023-12-28T08:19:26;1.33;;;1.17;;
2408;SDS011;8463;48.094;7.970;2023-12-28T08:21:54;1.77;;;1.50;;
2408;SDS011;8463;48.094;7.970;2023-12-28T08:24:19;1.40;;;1.30;;
2408;SDS011;8463;48.094;7.970;2023-12-28T08:26:46;1.70;;;1.60;;
2408;SDS011;8463;48.094;7.970;2023-12-28T08:29:11;1.20;;;1.10;;
2408;SDS011;8463;48.094;7.970;2023-12-28T08:31:37;1.23;;;1.13;;
2408;SDS011;8463;48.094;7.970;2023-12-28T08:34:02;1.40;;;1.10;;
2408;SDS011;8463;48.094;7.970;2023-12-28T08:36:28;4.87;;;2.07;;
2408;SDS011;8463;48.094;7.970;2023-12-28T08:38:54;3.13;;;2.50;;
2408;SDS011;8463;48.094;7.970;2023-12-28T08:41:20;1.70;;;1.30;;
2408;SDS011;8463;48.094;7.970;2023-12-28T08:43:48;2.00;;;1.10;;
2408;SDS011;8463;48.094;7.970;2023-12-28T08:46:15;1.53;;;1.30;;
2408;SDS011;8463;48.094;7.970;2023-12-28T08:48:41;1.83;;;1.37;;
2408;SDS011;8463;48.094;7.970;2023-12-28T08:51:07;1.50;;;1.30;;
2408;SDS011;8463;48.094;7.970;2023-12-28T08:53:34;3.37;;;1.90;;
2408;SDS011;8463;48.094;7.970;2023-12-28T08:56:00;1.50;;;1.13;;
2408;SDS011;8463;48.094;7.970;2023-12-28T08:58:25;1.30;;;1.00;;
2408;SDS011;8463;48.094;7.970;2023-12-28T09:00:51;2.17;;;1.50;;
2408;SDS011;8463;48.094;7.970;2023-12-28T09:03:17;1.97;;;1.30;;
2408;SDS011;8463;48.094;7.970;2023-12-28T09:05:42;1.60;;;1.07;;
2408;SDS011;8463;48.094;7.970;2023-12-28T09:08:08;2.00;;;1.00;;
2408;SDS011;8463;48.094;7.970;2023-12-28T09:10:34;2.07;;;1.87;;
2408;SDS011;8463;48.094;7.970;2023-12-28T09:12:59;3.43;;;1.80;;
2408;SDS011;8463;48.094;7.970;2023-12-28T09:15:27;4.20;;;2.60;;
2408;SDS011;8463;48.094;7.970;2023-12-28T09:17:56;3.87;;;1.87;;
2408;SDS011;8463;48.094;7.970;2023-12-28T09:20:21;4.97;;;2.97;;
2408;SDS011;8463;48.094;7.970;2023-12-28T09:22:47;2.17;;;1.97;;
2408;SDS011;8463;48.094;7.970;2023-12-28T09:25:18;2.03;;;1.40;;
2408;SDS011;8463;48.094;7.970;2023-12-28T09:27:44;2.10;;;1.70;;
2408;SDS011;8463;48.094;7.970;2023-12-28T09:30:09;2.17;;;1.97;;
2408;SDS011;8463;48.094;7.970;2023-12-28T09:32:35;3.93;;;1.83;;
2408;SDS011;8463;48.094;7.970;2023-12-28T09:35:01;2.43;;;1.70;;
2408;SDS011;8463;48.094;7.970;2023-12-28T09:37:26;1.83;;;1.37;;
2408;SDS011;8463;48.094;7.970;2023-12-28T09:39:52;1.93;;;1.50;;
2408;SDS011;8463;48.094;7.970;2023-12-28T09:42:23;2.67;;;2.20;;
2408;SDS011;8463;48.094;7.970;2023-12-28T09:44:53;2.47;;;2.10;;
2408;SDS011;8463;48.094;7.970;2023-12-28T09:47:19;1.13;;;1.03;;
2408;SDS011;8463;48.094;7.970;2023-12-28T09:49:45;1.60;;;1.40;;
2408;SDS011;8463;48.094;7.970;2023-12-28T09:52:12;1.93;;;1.30;;
2408;SDS011;8463;48.094;7.970;2023-12-28T09:54:38;2.63;;;1.80;;
2408;SDS011;8463;48.094;7.970;2023-12-28T09:57:04;1.60;;;1.50;;
2408;SDS011;8463;48.094;7.970;2023-12-28T09:59:30;2.00;;;1.70;;
2408;SDS011;8463;48.094;7.970;2023-12-28T10:01:58;3.13;;;2.13;;
2408;SDS011;8463;48.094;7.970;2023-12-28T10:04:26;1.70;;;1.27;;
2408;SDS011;8463;48.094;7.970;2023-12-28T10:06:54;1.53;;;1.43;;
2408;SDS011;8463;48.094;7.970;2023-12-28T10:09:20;1.30;;;1.10;;
2408;SDS011;8463;48.094;7.970;2023-12-28T10:11:48;2.37;;;1.47;;
2408;SDS011;8463;48.094;7.970;2023-12-28T10:14:14;2.40;;;1.40;;
2408;SDS011;8463;48.094;7.970;2023-12-28T10:16:41;3.37;;;1.60;;
2408;SDS011;8463;48.094;7.970;2023-12-28T10:19:07;2.90;;;1.77;;
2408;SDS011;8463;48.094;7.970;2023-12-28T10:21:32;4.80;;;3.37;;
2408;SDS011;8463;48.094;7.970;2023-12-28T10:23:59;3.70;;;2.40;;
2408;SDS011;8463;48.094;7.970;2023-12-28T10:26:25;0.90;;;0.80;;
2408;SDS011;8463;48.094;7.970;2023-12-28T10:28:56;1.47;;;1.27;;
2408;SDS011;8463;48.094;7.970;2023-12-28T10:31:26;1.47;;;1.37;;
2408;SDS011;8463;48.094;7.970;2023-12-28T10:33:52;1.53;;;1.30;;
2408;SDS011;8463;48.094;7.970;2023-12-28T10:36:18;2.00;;;1.50;;
2408;SDS011;8463;48.094;7.970;2023-12-28T10:38:45;2.23;;;1.30;;
2408;SDS011;8463;48.094;7.970;2023-12-28T10:41:12;3.03;;;1.70;;
2408;SDS011;8463;48.094;7.970;2023-12-28T10:43:50;2.30;;;1.13;;
2408;SDS011;8463;48.094;7.970;2023-12-28T10:46:27;2.50;;;1.40;;
2408;SDS011;8463;48.094;7.970;2023-12-28T10:49:00;2.10;;;1.27;;
2408;SDS011;8463;48.094;7.970;2023-12-28T10:51:37;2.80;;;1.00;;
2408;SDS011;8463;48.094;7.970;2023-12-28T10:57:05;2.20;;;1.03;;
2408;SDS011;8463;48.094;7.970;2023-12-28T11:02:13;3.53;;;2.00;;
2408;SDS011;8463;48.094;7.970;2023-12-28T11:04:48;1.17;;;1.00;;
2408;SDS011;8463;48.094;7.970;2023-12-28T11:07:14;1.30;;;1.13;;
2408;SDS011;8463;48.094;7.970;2023-12-28T11:09:42;3.70;;;1.70;;
2408;SDS011;8463;48.094;7.970;2023-12-28T11:12:09;2.00;;;1.57;;
2408;SDS011;8463;48.094;7.970;2023-12-28T11:14:36;2.97;;;1.97;;
2408;SDS011;8463;48.094;7.970;2023-12-28T11:17:05;1.77;;;1.67;;
2408;SDS011;8463;48.094;7.970;2023-12-28T11:19:30;1.80;;;1.40;;
2408;SDS011;8463;48.094;7.970;2023-12-28T11:21:58;6.13;;;1.57;;
2408;SDS011;8463;48.094;7.970;2023-12-28T11:24:26;1.87;;;1.20;;
2408;SDS011;8463;48.094;7.970;2023-12-28T11:26:53;1.90;;;1.60;;
2408;SDS011;8463;48.094;7.970;2023-12-28T11:29:19;1.60;;;1.37;;
2408;SDS011;8463;48.094;7.970;2023-12-28T11:31:50;1.60;;;1.50;;
2408;SDS011;8463;48.094;7.970;2023-12-28T11:34:16;1.70;;;1.60;;
2408;SDS011;8463;48.094;7.970;2023-12-28T11:36:51;1.87;;;1.70;;
2408;SDS011;8463;48.094;7.970;2023-12-28T11:39:20;2.47;;;1.43;;
2408;SDS011;8463;48.094;7.970;2023-12-28T11:42:01;3.17;;;1.90;;
2408;SDS011;8463;48.094;7.970;2023-12-28T11:44:28;3.50;;;1.50;;
2408;SDS011;8463;48.094;7.970;2023-12-28T11:46:55;3.20;;;1.43;;
2408;SDS011;8463;48.094;7.970;2023-12-28T11:49:27;2.50;;;1.30;;
2408;SDS011;8463;48.094;7.970;2023-12-28T11:51:58;1.47;;;1.27;;
2408;SDS011;8463;48.094;7.970;2023-12-28T11:54:24;2.10;;;1.50;;
2408;SDS011;8463;48.094;7.970;2023-12-28T11:56:51;2.10;;;1.57;;
2408;SDS011;8463;48.094;7.970;2023-12-28T11:59:18;1.30;;;1.20;;
2408;SDS011;8463;48.094;7.970;2023-12-28T12:01:48;2.23;;;1.50;;
2408;SDS011;8463;48.094;7.970;2023-12-28T12:04:15;1.70;;;1.27;;
2408;SDS011;8463;48.094;7.970;2023-12-28T12:06:40;1.70;;;1.37;;
2408;SDS011;8463;48.094;7.970;2023-12-28T12:09:06;2.10;;;1.40;;
2408;SDS011;8463;48.094;7.970;2023-12-28T12:11:32;3.10;;;1.80;;
2408;SDS011;8463;48.094;7.970;2023-12-28T12:14:00;2.77;;;2.57;;
2408;SDS011;8463;48.094;7.970;2023-12-28T12:16:34;5.53;;;3.60;;
2408;SDS011;8463;48.094;7.970;2023-12-28T12:19:00;2.70;;;2.23;;
2408;SDS011;8463;48.094;7.970;2023-12-28T12:21:26;3.93;;;1.93;;
2408;SDS011;8463;48.094;7.970;2023-12-28T12:23:52;5.90;;;2.13;;
2408;SDS011;8463;48.094;7.970;2023-12-28T12:26:19;2.23;;;1.67;;
2408;SDS011;8463;48.094;7.970;2023-12-28T12:28:46;6.13;;;3.80;;
2408;SDS011;8463;48.094;7.970;2023-12-28T12:31:13;2.10;;;1.33;;
2408;SDS011;8463;48.094;7.970;2023-12-28T12:33:39;1.77;;;1.67;;
2408;SDS011;8463;48.094;7.970;2023-12-28T12:36:05;2.20;;;2.00;;
2408;SDS011;8463;48.094;7.970;2023-12-28T12:38:33;2.80;;;2.57;;
2408;SDS011;8463;48.094;7.970;2023-12-28T12:40:59;1.90;;;1.60;;
2408;SDS011;8463;48.094;7.970;2023-12-28T12:43:25;4.90;;;2.67;;
2408;SDS011;8463;48.094;7.970;2023-12-28T12:45:52;4.30;;;2.70;;
2408;SDS011;8463;48.094;7.970;2023-12-28T12:48:18;4.13;;;2.37;;
2408;SDS011;8463;48.094;7.970;2023-12-28T12:50:44;1.80;;;1.70;;
2408;SDS011;8463;48.094;7.970;2023-12-28T12:53:10;2.40;;;2.10;;
2408;SDS011;8463;48.094;7.970;2023-12-28T12:55:36;2.40;;;2.20;;
2408;SDS011;8463;48.094;7.970;2023-12-28T12:58:04;2.37;;;2.13;;
2408;SDS011;8463;48.094;7.970;2023-12-28T13:00:30;2.13;;;1.93;;
2408;SDS011;8463;48.094;7.970;2023-12-28T13:02:58;2.17;;;1.87;;
2408;SDS011;8463;48.094;7.970;2023-12-28T13:05:24;3.10;;;2.13;;
2408;SDS011;8463;48.094;7.970;2023-12-28T13:07:51;3.03;;;2.73;;
2408;SDS011;8463;48.094;7.970;2023-12-28T13:10:17;4.23;;;2.90;;
2408;SDS011;8463;48.094;7.970;2023-12-28T13:12:43;2.37;;;2.17;;
2408;SDS011;8463;48.094;7.970;2023-12-28T13:15:08;2.40;;;2.17;;
2408;SDS011;8463;48.094;7.970;2023-12-28T13:17:34;2.30;;;2.10;;
2408;SDS011;8463;48.094;7.970;2023-12-28T13:20:01;3.30;;;1.83;;
2408;SDS011;8463;48.094;7.970;2023-12-28T13:22:28;2.63;;;1.90;;
2408;SDS011;8463;48.094;7.970;2023-12-28T13:24:54;2.33;;;1.37;;
2408;SDS011;8463;48.094;7.970;2023-12-28T13:27:19;1.43;;;1.33;;
2408;SDS011;8463;48.094;7.970;2023-12-28T13:29:45;2.97;;;1.97;;
2408;SDS011;8463;48.094;7.970;2023-12-28T13:32:10;9.90;;;2.57;;
2408;SDS011;8463;48.094;7.970;2023-12-28T13:34:38;4.17;;;2.90;;
2408;SDS011;8463;48.094;7.970;2023-12-28T13:37:04;2.20;;;2.00;;
2408;SDS011;8463;48.094;7.970;2023-12-28T13:39:30;3.77;;;2.80;;
2408;SDS011;8463;48.094;7.970;2023-12-28T13:41:56;3.20;;;2.50;;
2408;SDS011;8463;48.094;7.970;2023-12-28T13:44:21;5.43;;;3.17;;
2408;SDS011;8463;48.094;7.970;2023-12-28T13:46:47;6.70;;;3.70;;
2408;SDS011;8463;48.094;7.970;2023-12-28T13:49:14;6.40;;;4.00;;
2408;SDS011;8463;48.094;7.970;2023-12-28T13:51:40;4.30;;;2.17;;
2408;SDS011;8463;48.094;7.970;2023-12-28T13:54:05;4.17;;;2.83;;
2408;SDS011;8463;48.094;7.970;2023-12-28T13:56:31;2.40;;;2.13;;
2408;SDS011;8463;48.094;7.970;2023-12-28T13:58:57;2.90;;;1.83;;
2408;SDS011;8463;48.094;7.970;2023-12-28T14:01:22;4.17;;;2.73;;
2408;SDS011;8463;48.094;7.970;2023-12-28T14:03:48;4.97;;;3.90;;
2408;SDS011;8463;48.094;7.970;2023-12-28T14:06:16;2.30;;;1.90;;
2408;SDS011;8463;48.094;7.970;2023-12-28T14:08:43;1.87;;;1.77;;
2408;SDS011;8463;48.094;7.970;2023-12-28T14:11:08;5.20;;;3.23;;
2408;SDS011;8463;48.094;7.970;2023-12-28T14:13:34;7.23;;;3.23;;
2408;SDS011;8463;48.094;7.970;2023-12-28T14:16:02;4.77;;;3.13;;
2408;SDS011;8463;48.094;7.970;2023-12-28T14:18:28;3.27;;;2.47;;
2408;SDS011;8463;48.094;7.970;2023-12-28T14:20:54;3.30;;;3.00;;
2408;SDS011;8463;48.094;7.970;2023-12-28T14:23:19;2.30;;;2.00;;
2408;SDS011;8463;48.094;7.970;2023-12-28T14:25:45;2.00;;;1.77;;
2408;SDS011;8463;48.094;7.970;2023-12-28T14:28:16;3.30;;;2.17;;
2408;SDS011;8463;48.094;7.970;2023-12-28T14:30:42;2.37;;;1.47;;
2408;SDS011;8463;48.094;7.970;2023-12-28T14:33:09;2.83;;;2.00;;
2408;SDS011;8463;48.094;7.970;2023-12-28T14:35:36;3.47;;;2.07;;
2408;SDS011;8463;48.094;7.970;2023-12-28T14:38:06;1.87;;;1.77;;
2408;SDS011;8463;48.094;7.970;2023-12-28T14:40:33;1.87;;;1.60;;
2408;SDS011;8463;48.094;7.970;2023-12-28T14:42:58;1.97;;;1.73;;
2408;SDS011;8463;48.094;7.970;2023-12-28T14:45:24;2.10;;;1.90;;
2408;SDS011;8463;48.094;7.970;2023-12-28T14:47:50;2.50;;;2.00;;
2408;SDS011;8463;48.094;7.970;2023-12-28T14:50:16;3.63;;;2.30;;
2408;SDS011;8463;48.094;7.970;2023-12-28T14:52:42;3.03;;;2.00;;
2408;SDS011;8463;48.094;7.970;2023-12-28T14:55:10;2.40;;;2.20;;
2408;SDS011;8463;48.094;7.970;2023-12-28T14:57:36;1.93;;;1.83;;
2408;SDS011;8463;48.094;7.970;2023-12-28T15:00:02;2.37;;;1.90;;
2408;SDS011;8463;48.094;7.970;2023-12-28T15:02:30;3.60;;;2.00;;
2408;SDS011;8463;48.094;7.970;2023-12-28T15:04:56;2.97;;;1.83;;
2408;SDS011;8463;48.094;7.970;2023-12-28T15:07:24;2.70;;;1.50;;
2408;SDS011;8463;48.094;7.970;2023-12-28T15:09:50;1.73;;;1.50;;
2408;SDS011;8463;48.094;7.970;2023-12-28T15:12:20;3.20;;;2.30;;
2408;SDS011;8463;48.094;7.970;2023-12-28T15:14:49;2.30;;;2.03;;
2408;SDS011;8463;48.094;7.970;2023-12-28T15:17:15;2.20;;;2.00;;
2408;SDS011;8463;48.094;7.970;2023-12-28T15:19:41;2.40;;;2.13;;
2408;SDS011;8463;48.094;7.970;2023-12-28T15:22:07;1.90;;;1.67;;
2408;SDS011;8463;48.094;7.970;2023-12-28T15:24:35;2.87;;;1.63;;
2408;SDS011;8463;48.094;7.970;2023-12-28T15:27:04;2.17;;;1.93;;